createdAt,value
2022-10-09T00:00:53.067Z,5.77
2022-10-09T00:01:53.077Z,5.73
2022-10-09T00:02:52.981Z,5.70
2022-10-09T00:03:52.951Z,5.66
2022-10-09T00:04:52.937Z,5.66
2022-10-09T00:05:52.853Z,5.77
2022-10-09T00:06:52.811Z,5.78
2022-10-09T00:07:52.767Z,5.69
2022-10-09T00:08:52.738Z,5.80
2022-10-09T00:09:52.682Z,5.74
2022-10-09T00:10:52.642Z,5.75
2022-10-09T00:11:52.609Z,5.77
2022-10-09T00:12:52.555Z,5.73
2022-10-09T00:13:52.509Z,5.73
2022-10-09T00:14:52.466Z,5.73
2022-10-09T00:15:52.434Z,5.75
2022-10-09T00:16:52.445Z,5.70
2022-10-09T00:17:52.342Z,5.67
2022-10-09T00:18:52.304Z,5.77
2022-10-09T00:19:52.252Z,5.80
2022-10-09T00:20:52.209Z,5.69
2022-10-09T00:21:52.165Z,5.65
2022-10-09T00:22:52.133Z,5.66
2022-10-09T00:23:52.091Z,5.66
2022-10-09T00:24:52.034Z,5.74
2022-10-09T00:25:51.997Z,5.70
2022-10-09T00:26:51.949Z,5.65
2022-10-09T00:27:51.907Z,5.62
2022-10-09T00:28:51.912Z,5.62
2022-10-09T00:29:51.850Z,5.58
2022-10-09T00:30:51.816Z,5.65
2022-10-09T00:31:51.735Z,5.63
2022-10-09T00:32:51.691Z,5.58
2022-10-09T00:33:51.648Z,5.69
2022-10-09T00:34:51.605Z,5.62
2022-10-09T00:35:51.573Z,5.60
2022-10-09T00:36:51.519Z,5.62
2022-10-09T00:37:51.477Z,5.59
2022-10-09T00:38:51.434Z,5.51
2022-10-09T00:39:51.391Z,5.45
2022-10-09T00:40:51.346Z,5.45
2022-10-09T00:41:51.318Z,5.45
2022-10-09T00:42:51.733Z,5.42
2022-10-09T00:43:51.219Z,5.47
2022-10-09T00:44:51.176Z,5.44
2022-10-09T00:45:51.157Z,5.48
2022-10-09T00:46:51.089Z,5.48
2022-10-09T00:47:51.055Z,5.45
2022-10-09T00:48:51.002Z,5.55
2022-10-09T00:49:50.960Z,5.58
2022-10-09T00:50:50.917Z,5.44
2022-10-09T00:51:50.876Z,5.59
2022-10-09T00:52:51.295Z,5.48
2022-10-09T00:53:50.800Z,5.38
2022-10-09T00:54:50.743Z,5.44
2022-10-09T00:55:50.700Z,5.48
2022-10-09T00:56:50.656Z,5.55
2022-10-09T00:57:50.618Z,5.56
2022-10-09T00:58:50.574Z,5.55
2022-10-09T00:59:50.543Z,5.56
2022-10-09T01:00:50.487Z,5.52
2022-10-09T01:01:50.522Z,5.47
2022-10-09T01:02:50.727Z,5.58
2022-10-09T01:03:50.356Z,5.51
2022-10-09T01:04:50.326Z,5.45
2022-10-09T01:05:50.272Z,5.42
2022-10-09T01:06:50.226Z,5.49
2022-10-09T01:07:50.183Z,5.41
2022-10-09T01:08:50.139Z,5.45
2022-10-09T01:09:50.097Z,5.45
2022-10-09T01:10:50.065Z,5.42
2022-10-09T01:11:50.010Z,5.51
2022-10-09T01:12:50.241Z,5.40
2022-10-09T01:13:49.931Z,5.38
2022-10-09T01:14:49.880Z,5.32
2022-10-09T01:15:49.908Z,5.40
2022-10-09T01:16:49.809Z,5.40
2022-10-09T01:17:49.755Z,5.47
2022-10-09T01:18:49.712Z,5.48
2022-10-09T01:19:49.665Z,5.51
2022-10-09T01:20:49.628Z,5.44
2022-10-09T01:21:49.579Z,5.52
2022-10-09T01:22:49.813Z,5.35
2022-10-09T01:23:49.491Z,5.45
2022-10-09T01:24:49.461Z,5.33
2022-10-09T01:25:49.405Z,5.37
2022-10-09T01:26:49.362Z,5.47
2022-10-09T01:27:49.332Z,5.38
2022-10-09T01:28:49.276Z,5.35
2022-10-09T01:29:49.234Z,5.30
2022-10-09T01:30:49.245Z,5.35
2022-10-09T01:31:49.145Z,5.33
2022-10-09T01:32:49.392Z,5.40
2022-10-09T01:33:49.086Z,5.30
2022-10-09T01:34:49.020Z,5.40
2022-10-09T01:35:48.976Z,5.30
2022-10-09T01:36:48.935Z,5.23
2022-10-09T01:37:48.886Z,5.19
2022-10-09T01:38:48.846Z,5.30
2022-10-09T01:39:48.810Z,5.30
2022-10-09T01:40:48.758Z,5.20
2022-10-09T01:41:48.715Z,5.29
2022-10-09T01:42:48.947Z,5.33
2022-10-09T01:43:48.633Z,5.29
2022-10-09T01:44:48.585Z,5.41
2022-10-09T01:45:48.551Z,5.35
2022-10-09T01:46:48.502Z,5.29
2022-10-09T01:47:48.454Z,5.33
2022-10-09T01:48:48.411Z,5.40
2022-10-09T01:49:48.371Z,5.24
2022-10-09T01:50:48.325Z,5.30
2022-10-09T01:51:48.291Z,5.33
2022-10-09T01:52:48.547Z,5.33
2022-10-09T01:53:48.202Z,5.30
2022-10-09T01:54:48.153Z,5.32
2022-10-09T01:55:48.106Z,5.26
2022-10-09T01:56:48.066Z,5.19
2022-10-09T01:57:48.033Z,5.04
2022-10-09T01:58:47.999Z,5.12
2022-10-09T01:59:47.935Z,5.06
2022-10-09T02:00:47.912Z,4.99
2022-10-09T02:01:47.924Z,4.93
2022-10-09T02:02:48.241Z,4.96
2022-10-09T02:03:47.773Z,4.86
2022-10-09T02:04:47.733Z,4.99
2022-10-09T02:05:47.681Z,5.06
2022-10-09T02:06:47.632Z,5.08
2022-10-09T02:07:47.589Z,5.02
2022-10-09T02:08:47.549Z,5.06
2022-10-09T02:09:47.517Z,4.99
2022-10-09T02:10:47.459Z,5.02
2022-10-09T02:11:47.413Z,5.04
2022-10-09T02:12:47.599Z,4.96
2022-10-09T02:13:47.329Z,4.90
2022-10-09T02:14:47.287Z,4.99
2022-10-09T02:15:47.329Z,4.86
2022-10-09T02:16:47.199Z,4.88
2022-10-09T02:17:47.155Z,4.79
2022-10-09T02:18:47.122Z,4.80
2022-10-09T02:19:47.067Z,4.91
2022-10-09T02:20:47.027Z,4.84
2022-10-09T02:21:48.652Z,4.90
2022-10-09T02:22:47.205Z,4.88
2022-10-09T02:23:46.894Z,4.87
2022-10-09T02:24:46.855Z,4.80
2022-10-09T02:25:46.811Z,4.90
2022-10-09T02:26:46.767Z,4.80
2022-10-09T02:27:46.734Z,4.86
2022-10-09T02:28:46.702Z,4.86
2022-10-09T02:29:46.637Z,4.83
2022-10-09T02:30:46.659Z,4.84
2022-10-09T02:31:46.548Z,4.91
2022-10-09T02:32:46.888Z,4.87
2022-10-09T02:33:46.462Z,4.88
2022-10-09T02:34:46.427Z,4.90
2022-10-09T02:35:46.373Z,4.97
2022-10-09T02:36:46.338Z,4.88
2022-10-09T02:37:46.287Z,4.88
2022-10-09T02:38:46.270Z,4.96
2022-10-09T02:39:46.203Z,4.99
2022-10-09T02:40:46.206Z,4.91
2022-10-09T02:41:46.113Z,4.94
2022-10-09T02:42:46.240Z,4.93
2022-10-09T02:43:46.025Z,4.90
2022-10-09T02:44:45.996Z,4.91
2022-10-09T02:45:45.940Z,4.87
2022-10-09T02:46:45.960Z,4.93
2022-10-09T02:47:45.866Z,4.80
2022-10-09T02:48:45.810Z,4.97
2022-10-09T02:49:45.766Z,4.90
2022-10-09T02:50:45.722Z,4.83
2022-10-09T02:51:45.679Z,4.86
2022-10-09T02:52:45.812Z,4.86
2022-10-09T02:53:45.611Z,4.80
2022-10-09T02:54:56.782Z,4.91
2022-10-09T02:55:45.505Z,4.87
2022-10-09T02:56:45.464Z,4.87
2022-10-09T02:57:45.417Z,4.86
2022-10-09T02:58:45.375Z,4.83
2022-10-09T02:59:45.343Z,4.80
2022-10-09T03:00:45.288Z,4.88
2022-10-09T03:01:45.358Z,5.01
2022-10-09T03:02:45.398Z,4.79
2022-10-09T03:03:45.159Z,4.75
2022-10-09T03:04:45.126Z,4.79
2022-10-09T03:05:45.084Z,4.75
2022-10-09T03:06:45.024Z,4.79
2022-10-09T03:07:44.982Z,4.77
2022-10-09T03:08:44.939Z,4.79
2022-10-09T03:09:44.896Z,4.74
2022-10-09T03:10:44.854Z,4.80
2022-10-09T03:11:44.819Z,4.84
2022-10-09T03:12:44.764Z,4.80
2022-10-09T03:13:44.720Z,4.86
2022-10-09T03:14:44.678Z,4.68
2022-10-09T03:15:44.688Z,4.83
2022-10-09T03:16:44.593Z,4.79
2022-10-09T03:17:44.558Z,4.80
2022-10-09T03:18:44.509Z,4.75
2022-10-09T03:19:44.460Z,4.71
2022-10-09T03:20:44.417Z,4.87
2022-10-09T03:21:44.374Z,4.64
2022-10-09T03:22:44.340Z,4.69
2022-10-09T03:23:44.304Z,4.77
2022-10-09T03:24:44.254Z,4.74
2022-10-09T03:25:44.199Z,4.72
2022-10-09T03:26:44.157Z,4.72
2022-10-09T03:27:44.110Z,4.75
2022-10-09T03:28:44.123Z,4.56
2022-10-09T03:29:44.025Z,4.69
2022-10-09T03:30:43.981Z,4.68
2022-10-09T03:31:52.566Z,4.61
2022-10-09T03:32:43.915Z,4.57
2022-10-09T03:33:43.850Z,4.61
2022-10-09T03:34:43.818Z,4.53
2022-10-09T03:35:43.762Z,4.62
2022-10-09T03:36:43.719Z,4.64
2022-10-09T03:37:43.679Z,4.65
2022-10-09T03:38:43.640Z,4.72
2022-10-09T03:39:43.611Z,4.59
2022-10-09T03:40:43.553Z,4.56
2022-10-09T03:41:43.508Z,4.62
2022-10-09T03:42:43.461Z,4.57
2022-10-09T03:43:43.414Z,4.54
2022-10-09T03:44:43.380Z,4.43
2022-10-09T03:45:43.337Z,4.44
2022-10-09T03:46:44.267Z,4.53
2022-10-09T03:47:43.376Z,4.50
2022-10-09T03:48:43.273Z,4.54
2022-10-09T03:49:43.150Z,4.42
2022-10-09T03:50:43.169Z,4.53
2022-10-09T03:51:43.076Z,4.57
2022-10-09T03:52:43.038Z,4.64
2022-10-09T03:53:43.007Z,4.54
2022-10-09T03:54:42.937Z,4.74
2022-10-09T03:55:42.897Z,4.68
2022-10-09T03:56:42.847Z,4.74
2022-10-09T03:57:42.815Z,4.69
2022-10-09T03:58:42.761Z,4.84
2022-10-09T03:59:42.823Z,4.71
2022-10-09T04:00:42.693Z,4.77
2022-10-09T04:01:42.700Z,4.86
2022-10-09T04:02:42.619Z,4.74
2022-10-09T04:03:42.549Z,4.83
2022-10-09T04:04:42.498Z,4.88
2022-10-09T04:05:42.454Z,4.84
2022-10-09T04:06:42.415Z,4.83
2022-10-09T04:07:42.366Z,4.75
2022-10-09T04:08:42.348Z,4.90
2022-10-09T04:09:42.277Z,4.93
2022-10-09T04:10:42.236Z,4.97
2022-10-09T04:11:42.191Z,4.99
2022-10-09T04:12:42.148Z,5.08
2022-10-09T04:13:42.104Z,5.15
2022-10-09T04:14:42.073Z,5.22
2022-10-09T04:15:42.018Z,5.23
2022-10-09T04:16:42.047Z,5.19
2022-10-09T04:17:41.928Z,5.32
2022-10-09T04:18:41.893Z,5.40
2022-10-09T04:19:41.843Z,5.20
2022-10-09T04:20:41.813Z,5.29
2022-10-09T04:21:41.767Z,5.12
2022-10-09T04:22:41.718Z,5.11
2022-10-09T04:23:41.669Z,5.02
2022-10-09T04:24:41.625Z,5.12
2022-10-09T04:25:41.591Z,5.11
2022-10-09T04:26:41.540Z,5.11
2022-10-09T04:27:41.506Z,5.06
2022-10-09T04:28:41.560Z,5.01
2022-10-09T04:29:41.407Z,5.02
2022-10-09T04:30:41.366Z,4.90
2022-10-09T04:31:41.393Z,4.93
2022-10-09T04:32:41.279Z,4.94
2022-10-09T04:33:41.244Z,4.97
2022-10-09T04:34:41.190Z,4.87
2022-10-09T04:35:41.145Z,4.93
2022-10-09T04:36:41.113Z,4.84
2022-10-09T04:37:41.059Z,4.99
2022-10-09T04:38:41.016Z,4.93
2022-10-09T04:39:40.986Z,5.04
2022-10-09T04:40:40.931Z,5.12
2022-10-09T04:41:40.886Z,5.15
2022-10-09T04:42:40.842Z,5.26
2022-10-09T04:43:40.803Z,5.20
2022-10-09T04:44:40.755Z,5.12
2022-10-09T04:45:40.944Z,5.06
2022-10-09T04:46:40.671Z,4.97
2022-10-09T04:47:40.624Z,5.17
2022-10-09T04:48:40.584Z,5.12
2022-10-09T04:49:40.537Z,5.12
2022-10-09T04:50:40.493Z,5.05
2022-10-09T04:51:40.467Z,4.99
2022-10-09T04:52:40.405Z,5.04
2022-10-09T04:53:40.365Z,5.05
2022-10-09T04:54:40.333Z,5.04
2022-10-09T04:55:40.275Z,5.08
2022-10-09T04:56:40.259Z,5.02
2022-10-09T04:57:40.190Z,4.96
2022-10-09T04:58:40.156Z,5.01
2022-10-09T04:59:40.102Z,5.04
2022-10-09T05:00:40.146Z,5.14
2022-10-09T05:01:40.133Z,5.08
2022-10-09T05:02:39.983Z,5.02
2022-10-09T05:03:39.930Z,5.08
2022-10-09T05:04:39.885Z,5.04
2022-10-09T05:05:39.840Z,4.96
2022-10-09T05:06:39.800Z,4.86
2022-10-09T05:07:39.752Z,4.77
2022-10-09T05:08:39.724Z,4.79
2022-10-09T05:09:39.666Z,4.83
2022-10-09T05:10:39.625Z,4.77
2022-10-09T05:11:42.670Z,4.84
2022-10-09T05:12:39.540Z,4.72
2022-10-09T05:13:39.490Z,4.87
2022-10-09T05:14:39.460Z,4.79
2022-10-09T05:15:39.408Z,4.74
2022-10-09T05:17:08.433Z,4.72
2022-10-09T05:17:39.351Z,4.72
2022-10-09T05:18:39.275Z,4.72
2022-10-09T05:19:39.246Z,4.72
2022-10-09T05:20:39.197Z,4.75
2022-10-09T05:21:39.154Z,4.69
2022-10-09T05:22:39.098Z,4.69
2022-10-09T05:23:39.054Z,4.68
2022-10-09T05:24:39.016Z,4.53
2022-10-09T05:25:38.969Z,4.51
2022-10-09T05:26:38.923Z,4.62
2022-10-09T05:27:38.890Z,4.67
2022-10-09T05:28:38.904Z,4.61
2022-10-09T05:29:38.795Z,4.64
2022-10-09T05:30:38.753Z,4.69
2022-10-09T05:31:38.762Z,4.65
2022-10-09T05:32:38.663Z,4.68
2022-10-09T05:33:38.632Z,4.71
2022-10-09T05:34:38.577Z,4.64
2022-10-09T05:35:38.540Z,4.51
2022-10-09T05:36:38.490Z,4.57
2022-10-09T05:37:38.446Z,4.64
2022-10-09T05:38:38.399Z,4.68
2022-10-09T05:39:38.378Z,4.57
2022-10-09T05:40:38.313Z,4.59
2022-10-09T05:41:38.280Z,4.57
2022-10-09T05:42:38.227Z,4.57
2022-10-09T05:43:38.182Z,4.64
2022-10-09T05:44:38.138Z,4.62
2022-10-09T05:45:38.164Z,4.54
2022-10-09T05:46:38.051Z,4.56
2022-10-09T05:47:38.007Z,4.65
2022-10-09T05:48:37.963Z,4.59
2022-10-09T05:49:37.922Z,4.56
2022-10-09T05:50:37.876Z,4.56
2022-10-09T05:51:37.861Z,4.67
2022-10-09T05:52:37.789Z,4.54
2022-10-09T05:53:37.746Z,4.59
2022-10-09T05:54:37.706Z,4.54
2022-10-09T05:55:37.658Z,4.61
2022-10-09T05:56:37.626Z,4.59
2022-10-09T05:57:37.575Z,4.65
2022-10-09T05:58:37.526Z,4.69
2022-10-09T05:59:37.485Z,4.71
2022-10-09T06:00:37.439Z,4.79
2022-10-09T06:01:37.582Z,4.88
2022-10-09T06:02:37.452Z,4.87
2022-10-09T06:03:37.310Z,4.97
2022-10-09T06:04:37.270Z,4.94
2022-10-09T06:05:37.222Z,4.90
2022-10-09T06:06:37.178Z,4.91
2022-10-09T06:07:37.157Z,4.93
2022-10-09T06:08:37.093Z,4.96
2022-10-09T06:09:37.046Z,4.97
2022-10-09T06:10:37.015Z,5.06
2022-10-09T06:11:36.959Z,5.14
2022-10-09T06:12:36.915Z,5.22
2022-10-09T06:13:36.877Z,5.27
2022-10-09T06:14:36.833Z,5.27
2022-10-09T06:15:36.787Z,5.30
2022-10-09T06:16:36.818Z,5.33
2022-10-09T06:17:36.699Z,5.27
2022-10-09T06:18:36.673Z,5.37
2022-10-09T06:19:36.623Z,5.32
2022-10-09T06:20:36.576Z,5.26
2022-10-09T06:21:36.527Z,5.41
2022-10-09T06:22:36.488Z,5.26
2022-10-09T06:23:36.438Z,5.30
2022-10-09T06:24:36.405Z,5.48
2022-10-09T06:25:37.329Z,6.10
2022-10-09T06:26:36.308Z,6.69
2022-10-09T06:27:36.288Z,7.23
2022-10-09T06:28:36.273Z,7.79
2022-10-09T06:29:36.192Z,8.34
2022-10-09T06:30:38.683Z,8.76
2022-10-09T06:31:36.094Z,9.04
2022-10-09T06:32:36.051Z,9.24
2022-10-09T06:33:36.012Z,9.44
2022-10-09T06:34:35.978Z,9.73
2022-10-09T06:35:35.925Z,9.96
2022-10-09T06:36:35.888Z,10.10
2022-10-09T06:37:35.841Z,10.31
2022-10-09T06:38:35.796Z,10.44
2022-10-09T06:39:35.776Z,10.51
2022-10-09T06:40:35.824Z,10.38
2022-10-09T06:41:35.680Z,10.35
2022-10-09T06:42:35.631Z,10.46
2022-10-09T06:43:35.605Z,10.55
2022-10-09T06:44:35.553Z,10.58
2022-10-09T06:45:35.512Z,11.01
2022-10-09T06:46:35.534Z,11.13
2022-10-09T06:47:35.432Z,11.11
2022-10-09T06:48:35.388Z,11.12
2022-10-09T06:49:35.353Z,11.12
2022-10-09T06:50:35.315Z,11.08
2022-10-09T06:51:35.269Z,11.21
2022-10-09T06:52:35.240Z,11.36
2022-10-09T06:53:35.190Z,11.46
2022-10-09T06:54:35.149Z,11.59
2022-10-09T06:55:35.111Z,11.49
2022-10-09T06:56:35.070Z,11.41
2022-10-09T06:57:35.033Z,11.17
2022-10-09T06:58:35.009Z,11.27
2022-10-09T06:59:34.966Z,11.02
2022-10-09T07:00:34.911Z,11.12
2022-10-09T07:01:34.941Z,11.03
2022-10-09T07:02:34.887Z,11.21
2022-10-09T07:03:34.800Z,11.17
2022-10-09T07:04:34.756Z,11.19
2022-10-09T07:05:34.735Z,11.31
2022-10-09T07:06:34.688Z,11.38
2022-10-09T07:07:34.652Z,11.45
2022-10-09T07:08:34.605Z,11.42
2022-10-09T07:09:34.565Z,11.44
2022-10-09T07:10:34.531Z,11.57
2022-10-09T07:11:34.500Z,11.69
2022-10-09T07:12:34.450Z,11.72
2022-10-09T07:13:34.412Z,11.85
2022-10-09T07:14:34.374Z,12.13
2022-10-09T07:15:34.422Z,12.05
2022-10-09T07:16:34.307Z,12.31
2022-10-09T07:17:34.262Z,12.40
2022-10-09T07:18:34.254Z,12.40
2022-10-09T07:19:34.189Z,12.38
2022-10-09T07:20:34.150Z,12.46
2022-10-09T07:21:34.122Z,12.66
2022-10-09T07:22:34.073Z,12.67
2022-10-09T07:23:34.039Z,12.89
2022-10-09T07:24:33.998Z,12.88
2022-10-09T07:25:33.963Z,12.77
2022-10-09T07:26:33.926Z,12.80
2022-10-09T07:27:33.904Z,12.81
2022-10-09T07:28:33.927Z,12.76
2022-10-09T07:29:33.817Z,12.99
2022-10-09T07:30:33.807Z,12.92
2022-10-09T07:31:33.742Z,12.96
2022-10-09T07:32:33.702Z,13.24
2022-10-09T07:33:33.679Z,13.44
2022-10-09T07:34:33.640Z,13.61
2022-10-09T07:35:33.594Z,13.62
2022-10-09T07:36:33.571Z,13.47
2022-10-09T07:37:33.524Z,13.57
2022-10-09T07:38:33.487Z,13.43
2022-10-09T07:39:33.449Z,13.54
2022-10-09T07:40:33.415Z,13.75
2022-10-09T07:41:33.378Z,13.75
2022-10-09T07:42:33.360Z,13.98
2022-10-09T07:43:33.305Z,14.04
2022-10-09T07:44:33.268Z,14.20
2022-10-09T07:45:33.236Z,14.39
2022-10-09T07:46:34.209Z,14.38
2022-10-09T07:47:33.162Z,14.23
2022-10-09T07:48:33.150Z,14.36
2022-10-09T07:49:33.092Z,14.21
2022-10-09T07:50:33.055Z,14.49
2022-10-09T07:51:33.019Z,14.46
2022-10-09T07:52:32.984Z,14.42
2022-10-09T07:53:35.950Z,14.67
2022-10-09T07:54:32.926Z,15.07
2022-10-09T07:55:32.879Z,15.25
2022-10-09T07:56:32.855Z,15.11
2022-10-09T07:57:32.877Z,14.95
2022-10-09T07:58:32.778Z,14.80
2022-10-09T07:59:32.750Z,14.66
2022-10-09T08:00:32.718Z,14.52
2022-10-09T08:01:32.746Z,14.75
2022-10-09T08:02:32.665Z,14.72
2022-10-09T08:03:32.601Z,14.78
2022-10-09T08:04:32.565Z,14.93
2022-10-09T08:05:32.529Z,15.07
2022-10-09T08:06:32.508Z,15.41
2022-10-09T08:07:34.934Z,15.51
2022-10-09T08:08:32.427Z,15.55
2022-10-09T08:09:32.408Z,15.67
2022-10-09T08:10:32.355Z,15.64
2022-10-09T08:11:32.322Z,16.10
2022-10-09T08:12:32.287Z,16.57
2022-10-09T08:13:32.255Z,17.00
2022-10-09T08:14:32.228Z,17.36
2022-10-09T08:15:32.242Z,17.21
2022-10-09T08:16:32.152Z,16.88
2022-10-09T08:17:32.115Z,17.07
2022-10-09T08:18:32.081Z,16.87
2022-10-09T08:19:32.049Z,16.51
2022-10-09T08:20:32.022Z,16.67
2022-10-09T08:21:31.989Z,16.80
2022-10-09T08:22:31.943Z,16.42
2022-10-09T08:23:31.910Z,16.34
2022-10-09T08:24:31.893Z,16.77
2022-10-09T08:25:31.842Z,16.80
2022-10-09T08:26:31.822Z,16.88
2022-10-09T08:27:31.774Z,16.87
2022-10-09T08:28:31.777Z,17.03
2022-10-09T08:29:33.108Z,17.18
2022-10-09T08:30:31.677Z,17.68
2022-10-09T08:31:31.880Z,17.81
2022-10-09T08:32:31.606Z,17.66
2022-10-09T08:33:31.584Z,18.04
2022-10-09T08:34:31.540Z,17.84
2022-10-09T08:35:34.593Z,17.94
2022-10-09T08:36:31.480Z,17.83
2022-10-09T08:37:31.435Z,17.43
2022-10-09T08:38:46.516Z,17.35
2022-10-09T08:39:31.369Z,17.18
2022-10-09T08:40:31.348Z,17.25
2022-10-09T08:41:31.301Z,17.30
2022-10-09T08:42:31.270Z,17.79
2022-10-09T08:43:31.239Z,17.70
2022-10-09T08:44:31.241Z,17.47
2022-10-09T08:45:31.180Z,17.17
2022-10-09T08:46:31.172Z,17.40
2022-10-09T08:47:31.118Z,17.32
2022-10-09T08:48:31.075Z,17.28
2022-10-09T08:49:31.106Z,17.55
2022-10-09T08:50:31.032Z,17.89
2022-10-09T08:51:31.010Z,18.20
2022-10-09T08:52:30.935Z,17.94
2022-10-09T08:53:30.911Z,17.71
2022-10-09T08:54:30.964Z,18.14
2022-10-09T08:55:39.911Z,18.36
2022-10-09T08:56:30.799Z,18.31
2022-10-09T08:57:30.775Z,18.66
2022-10-09T08:58:30.736Z,18.66
2022-10-09T08:59:30.719Z,18.35
2022-10-09T09:00:30.670Z,18.16
2022-10-09T09:01:30.730Z,18.21
2022-10-09T09:02:30.675Z,18.17
2022-10-09T09:03:30.573Z,18.50
2022-10-09T09:04:30.537Z,18.75
2022-10-09T09:05:30.508Z,18.01
2022-10-09T09:06:30.475Z,18.09
2022-10-09T09:07:30.459Z,18.57
2022-10-09T09:08:30.407Z,18.38
2022-10-09T09:09:30.377Z,18.31
2022-10-09T09:10:30.344Z,18.13
2022-10-09T09:11:30.310Z,17.86
2022-10-09T09:12:30.458Z,17.98
2022-10-09T09:13:30.254Z,17.63
2022-10-09T09:14:30.208Z,17.22
2022-10-09T09:15:30.182Z,17.55
2022-10-09T09:16:30.183Z,17.54
2022-10-09T09:17:30.112Z,17.39
2022-10-09T09:18:30.091Z,17.77
2022-10-09T09:19:30.044Z,17.86
2022-10-09T09:20:30.030Z,18.14
2022-10-09T09:21:29.991Z,18.46
2022-10-09T09:22:29.951Z,18.84
2022-10-09T09:23:29.929Z,19.12
2022-10-09T09:24:29.897Z,19.06
2022-10-09T09:25:29.848Z,18.74
2022-10-09T09:26:29.900Z,18.72
2022-10-09T09:27:29.782Z,19.12
2022-10-09T09:28:29.791Z,19.17
2022-10-09T09:29:29.760Z,19.31
2022-10-09T09:30:29.701Z,18.84
2022-10-09T09:31:29.872Z,18.74
2022-10-09T09:32:29.616Z,18.62
2022-10-09T09:33:33.747Z,18.66
2022-10-09T09:34:29.553Z,18.90
2022-10-09T09:35:29.520Z,19.32
2022-10-09T09:36:29.502Z,19.40
2022-10-09T09:37:29.454Z,19.45
2022-10-09T09:38:29.419Z,19.05
2022-10-09T09:40:31.270Z,18.74
2022-10-09T09:40:38.094Z,18.84
2022-10-09T09:41:29.337Z,18.90
2022-10-09T09:42:29.400Z,18.54
2022-10-09T09:43:29.255Z,18.20
2022-10-09T09:44:29.223Z,18.38
2022-10-09T09:45:29.193Z,18.38
2022-10-09T09:46:29.465Z,18.72
2022-10-09T09:47:29.165Z,18.74
2022-10-09T09:48:29.091Z,18.84
2022-10-09T09:49:29.057Z,18.42
2022-10-09T09:50:47.055Z,18.26
2022-10-09T09:51:29.706Z,18.26
2022-10-09T09:52:28.990Z,18.41
2022-10-09T09:53:29.955Z,18.13
2022-10-09T09:54:28.952Z,18.50
2022-10-09T09:55:28.858Z,18.74
2022-10-09T09:56:28.910Z,18.87
2022-10-09T09:57:28.796Z,18.76
2022-10-09T09:58:28.771Z,18.62
2022-10-09T09:59:28.751Z,18.83
2022-10-09T10:00:28.765Z,18.74
2022-10-09T10:01:28.662Z,18.96
2022-10-09T10:02:28.690Z,18.59
2022-10-09T10:03:29.865Z,18.76
2022-10-09T10:04:28.577Z,18.83
2022-10-09T10:05:28.533Z,19.12
2022-10-09T10:06:28.495Z,19.30
2022-10-09T10:07:28.460Z,19.32
2022-10-09T10:08:28.427Z,19.25
2022-10-09T10:09:28.401Z,18.90
2022-10-09T10:10:28.395Z,18.89
2022-10-09T10:11:28.332Z,19.10
2022-10-09T10:12:28.313Z,18.90
2022-10-09T10:13:28.262Z,19.15
2022-10-09T10:14:28.231Z,19.10
2022-10-09T10:15:28.195Z,19.24
2022-10-09T10:16:28.216Z,19.07
2022-10-09T10:17:28.131Z,19.16
2022-10-09T10:18:28.108Z,19.15
2022-10-09T10:19:28.061Z,19.28
2022-10-09T10:20:28.040Z,19.31
2022-10-09T10:21:28.026Z,18.74
2022-10-09T10:22:27.969Z,18.60
2022-10-09T10:23:27.971Z,18.84
2022-10-09T10:24:27.896Z,19.09
2022-10-09T10:25:27.865Z,19.32
2022-10-09T10:26:27.850Z,19.20
2022-10-09T10:27:27.799Z,19.30
2022-10-09T10:28:27.835Z,19.58
2022-10-09T10:29:27.730Z,19.72
2022-10-09T10:30:27.775Z,19.05
2022-10-09T10:31:27.690Z,18.82
2022-10-09T10:32:27.632Z,18.93
2022-10-09T10:33:27.598Z,18.84
2022-10-09T10:34:27.579Z,18.91
2022-10-09T10:35:27.530Z,19.24
2022-10-09T10:36:27.501Z,19.07
2022-10-09T10:37:27.505Z,18.75
2022-10-09T10:38:27.445Z,18.90
2022-10-09T10:39:27.415Z,19.07
2022-10-09T10:40:27.366Z,19.38
2022-10-09T10:41:27.333Z,19.43
2022-10-09T10:42:27.302Z,19.34
2022-10-09T10:43:27.266Z,19.55
2022-10-09T10:44:27.237Z,19.78
2022-10-09T10:45:27.208Z,19.82
2022-10-09T10:46:27.205Z,19.82
2022-10-09T10:47:27.133Z,19.90
2022-10-09T10:48:27.105Z,20.01
2022-10-09T10:49:31.643Z,19.58
2022-10-09T10:50:27.036Z,19.64
2022-10-09T10:51:27.013Z,19.49
2022-10-09T10:52:26.977Z,19.60
2022-10-09T10:53:26.934Z,19.49
2022-10-09T10:54:26.903Z,19.23
2022-10-09T10:55:26.868Z,19.34
2022-10-09T10:56:26.834Z,19.50
2022-10-09T10:57:26.815Z,19.65
2022-10-09T10:58:26.780Z,19.71
2022-10-09T10:59:26.736Z,19.78
2022-10-09T11:00:26.707Z,19.49
2022-10-09T11:01:26.706Z,19.25
2022-10-09T11:02:26.643Z,19.32
2022-10-09T11:03:26.695Z,19.13
2022-10-09T11:04:26.573Z,19.34
2022-10-09T11:05:26.537Z,19.45
2022-10-09T11:06:26.505Z,19.60
2022-10-09T11:07:26.475Z,19.42
2022-10-09T11:08:26.459Z,19.60
2022-10-09T11:09:26.404Z,19.62
2022-10-09T11:10:26.370Z,19.47
2022-10-09T11:11:26.341Z,19.01
2022-10-09T11:12:46.649Z,18.76
2022-10-09T11:13:26.273Z,18.64
2022-10-09T11:14:26.258Z,18.74
2022-10-09T11:15:26.208Z,19.09
2022-10-09T11:16:26.193Z,19.23
2022-10-09T11:17:26.147Z,19.30
2022-10-09T11:18:26.107Z,19.55
2022-10-09T11:19:26.079Z,19.35
2022-10-09T11:20:26.056Z,18.93
2022-10-09T11:21:26.008Z,18.89
2022-10-09T11:22:25.981Z,18.99
2022-10-09T11:23:25.941Z,19.07
2022-10-09T11:24:25.909Z,18.83
2022-10-09T11:25:25.875Z,18.72
2022-10-09T11:26:25.858Z,18.65
2022-10-09T11:27:25.809Z,18.83
2022-10-09T11:28:25.849Z,18.89
2022-10-09T11:29:25.743Z,18.72
2022-10-09T11:30:25.721Z,18.89
2022-10-09T11:31:25.716Z,18.97
2022-10-09T11:32:25.647Z,19.05
2022-10-09T11:33:25.608Z,18.64
2022-10-09T11:34:25.578Z,18.60
2022-10-09T11:35:25.543Z,18.71
2022-10-09T11:36:25.533Z,19.06
2022-10-09T11:37:25.477Z,19.16
2022-10-09T11:38:25.447Z,19.09
2022-10-09T11:39:25.410Z,19.15
2022-10-09T11:40:25.378Z,18.97
2022-10-09T11:41:25.348Z,18.97
2022-10-09T11:42:25.326Z,19.23
2022-10-09T11:43:25.288Z,19.25
2022-10-09T11:44:25.270Z,18.76
2022-10-09T11:45:25.376Z,18.78
2022-10-09T11:46:25.181Z,18.72
2022-10-09T11:47:25.144Z,18.91
2022-10-09T11:48:25.113Z,18.82
2022-10-09T11:49:25.094Z,19.01
2022-10-09T11:50:25.051Z,19.02
2022-10-09T11:51:25.013Z,19.01
2022-10-09T11:52:24.983Z,18.90
2022-10-09T11:53:24.948Z,19.01
2022-10-09T11:54:24.916Z,19.07
2022-10-09T11:55:24.906Z,19.17
2022-10-09T11:56:24.848Z,19.12
2022-10-09T11:57:24.814Z,19.25
2022-10-09T11:58:24.783Z,19.39
2022-10-09T11:59:24.747Z,19.43
2022-10-09T12:00:24.716Z,19.45
2022-10-09T12:01:24.763Z,19.43
2022-10-09T12:02:24.692Z,19.16
2022-10-09T12:03:24.627Z,18.75
2022-10-09T12:04:43.502Z,18.62
2022-10-09T12:05:24.554Z,18.60
2022-10-09T12:06:24.517Z,18.53
2022-10-09T12:07:24.529Z,18.47
2022-10-09T12:08:24.452Z,18.64
2022-10-09T12:09:24.416Z,18.72
2022-10-09T12:10:24.386Z,18.82
2022-10-09T12:11:24.352Z,18.94
2022-10-09T12:12:24.322Z,18.99
2022-10-09T12:13:24.300Z,18.89
2022-10-09T12:14:24.257Z,18.72
2022-10-09T12:15:24.222Z,18.78
2022-10-09T12:16:24.243Z,18.84
2022-10-09T12:17:24.154Z,18.75
2022-10-09T12:18:24.125Z,18.74
2022-10-09T12:19:24.099Z,18.65
2022-10-09T12:20:24.061Z,18.76
2022-10-09T12:21:24.029Z,18.76
2022-10-09T12:22:23.990Z,18.57
2022-10-09T12:23:27.944Z,18.54
2022-10-09T12:24:23.935Z,18.35
2022-10-09T12:25:23.902Z,18.44
2022-10-09T12:26:23.858Z,18.50
2022-10-09T12:27:23.825Z,18.46
2022-10-09T12:28:23.852Z,18.53
2022-10-09T12:29:23.756Z,18.54
2022-10-09T12:30:23.724Z,18.35
2022-10-09T12:31:23.760Z,18.34
2022-10-09T12:32:23.671Z,18.38
2022-10-09T12:33:23.627Z,18.31
2022-10-09T12:34:23.591Z,18.25
2022-10-09T12:35:23.557Z,18.10
2022-10-09T12:36:23.527Z,18.14
2022-10-09T12:37:23.505Z,18.07
2022-10-09T12:38:23.460Z,18.05
2022-10-09T12:39:23.426Z,18.02
2022-10-09T12:40:23.396Z,18.14
2022-10-09T12:41:23.360Z,18.19
2022-10-09T12:42:23.390Z,18.07
2022-10-09T12:43:23.303Z,18.04
2022-10-09T12:44:23.260Z,17.98
2022-10-09T12:45:23.224Z,17.94
2022-10-09T12:46:23.226Z,17.87
2022-10-09T12:47:23.159Z,17.92
2022-10-09T12:48:23.147Z,17.92
2022-10-09T12:49:23.095Z,17.94
2022-10-09T12:50:23.061Z,17.86
2022-10-09T12:51:23.024Z,17.76
2022-10-09T12:52:22.995Z,17.74
2022-10-09T12:53:22.957Z,17.66
2022-10-09T12:54:22.933Z,17.71
2022-10-09T12:55:22.889Z,17.95
2022-10-09T12:56:22.855Z,17.83
2022-10-09T12:57:24.094Z,17.86
2022-10-09T12:58:22.785Z,17.96
2022-10-09T12:59:22.757Z,17.91
2022-10-09T13:00:22.726Z,17.91
2022-10-09T13:01:22.802Z,17.98
2022-10-09T13:02:22.885Z,18.11
2022-10-09T13:03:22.607Z,18.04
2022-10-09T13:04:22.573Z,17.99
2022-10-09T13:05:22.535Z,18.05